sensor_id;sensor_type;location;lat;lon;timestamp;P1;durP1;ratioP1;P2;durP2;ratioP2
46355;SDS011;32066;49.474;11.106;2023-04-10T00:02:00;15.38;;;11.55;;
46355;SDS011;32066;49.474;11.106;2023-04-10T00:04:28;16.65;;;12.45;;
46355;SDS011;32066;49.474;11.106;2023-04-10T00:06:57;16.48;;;12.05;;
46355;SDS011;32066;49.474;11.106;2023-04-10T00:09:26;16.02;;;12.07;;
46355;SDS011;32066;49.474;11.106;2023-04-10T00:11:54;13.93;;;11.18;;
46355;SDS011;32066;49.474;11.106;2023-04-10T00:14:23;15.10;;;11.98;;
46355;SDS011;32066;49.474;11.106;2023-04-10T00:16:54;17.33;;;11.65;;
46355;SDS011;32066;49.474;11.106;2023-04-10T00:19:23;16.15;;;11.98;;
46355;SDS011;32066;49.474;11.106;2023-04-10T00:21:52;13.98;;;11.43;;
46355;SDS011;32066;49.474;11.106;2023-04-10T00:24:20;16.50;;;12.02;;
46355;SDS011;32066;49.474;11.106;2023-04-10T00:26:49;15.40;;;11.82;;
46355;SDS011;32066;49.474;11.106;2023-04-10T00:29:18;14.88;;;11.63;;
46355;SDS011;32066;49.474;11.106;2023-04-10T00:31:46;16.83;;;12.70;;
46355;SDS011;32066;49.474;11.106;2023-04-10T00:34:17;16.05;;;12.13;;
46355;SDS011;32066;49.474;11.106;2023-04-10T00:36:46;15.07;;;11.43;;
46355;SDS011;32066;49.474;11.106;2023-04-10T00:39:15;15.75;;;11.85;;
46355;SDS011;32066;49.474;11.106;2023-04-10T00:41:43;14.38;;;11.25;;
46355;SDS011;32066;49.474;11.106;2023-04-10T00:44:12;15.70;;;12.00;;
46355;SDS011;32066;49.474;11.106;2023-04-10T00:46:41;17.10;;;11.98;;
46355;SDS011;32066;49.474;11.106;2023-04-10T00:49:10;15.40;;;11.80;;
46355;SDS011;32066;49.474;11.106;2023-04-10T00:51:42;15.65;;;11.73;;
46355;SDS011;32066;49.474;11.106;2023-04-10T00:54:12;16.40;;;12.30;;
46355;SDS011;32066;49.474;11.106;2023-04-10T00:56:40;15.95;;;12.23;;
46355;SDS011;32066;49.474;11.106;2023-04-10T00:59:11;14.65;;;11.27;;
46355;SDS011;32066;49.474;11.106;2023-04-10T01:01:41;15.40;;;11.40;;
46355;SDS011;32066;49.474;11.106;2023-04-10T01:04:09;15.90;;;11.77;;
46355;SDS011;32066;49.474;11.106;2023-04-10T01:06:46;15.10;;;11.38;;
46355;SDS011;32066;49.474;11.106;2023-04-10T01:09:24;17.25;;;11.93;;
46355;SDS011;32066;49.474;11.106;2023-04-10T01:12:11;14.02;;;11.20;;
46355;SDS011;32066;49.474;11.106;2023-04-10T01:15:03;15.95;;;11.65;;
46355;SDS011;32066;49.474;11.106;2023-04-10T01:17:39;14.55;;;11.40;;
46355;SDS011;32066;49.474;11.106;2023-04-10T01:20:15;17.70;;;12.68;;
46355;SDS011;32066;49.474;11.106;2023-04-10T01:22:56;17.73;;;12.88;;
46355;SDS011;32066;49.474;11.106;2023-04-10T01:25:46;15.93;;;11.73;;
46355;SDS011;32066;49.474;11.106;2023-04-10T01:31:07;15.50;;;12.07;;
46355;SDS011;32066;49.474;11.106;2023-04-10T01:33:42;14.82;;;12.00;;
46355;SDS011;32066;49.474;11.106;2023-04-10T01:36:16;16.13;;;12.30;;
46355;SDS011;32066;49.474;11.106;2023-04-10T01:38:49;15.50;;;12.32;;
46355;SDS011;32066;49.474;11.106;2023-04-10T01:41:20;15.82;;;12.13;;
46355;SDS011;32066;49.474;11.106;2023-04-10T01:43:50;15.40;;;12.10;;
46355;SDS011;32066;49.474;11.106;2023-04-10T01:46:23;17.83;;;12.82;;
46355;SDS011;32066;49.474;11.106;2023-04-10T01:48:55;17.33;;;12.88;;
46355;SDS011;32066;49.474;11.106;2023-04-10T01:51:28;14.90;;;11.88;;
46355;SDS011;32066;49.474;11.106;2023-04-10T01:54:01;17.13;;;12.07;;
46355;SDS011;32066;49.474;11.106;2023-04-10T01:56:30;17.10;;;12.90;;
46355;SDS011;32066;49.474;11.106;2023-04-10T01:59:00;15.57;;;12.45;;
46355;SDS011;32066;49.474;11.106;2023-04-10T02:01:33;16.92;;;12.52;;
46355;SDS011;32066;49.474;11.106;2023-04-10T02:04:02;15.60;;;12.38;;
46355;SDS011;32066;49.474;11.106;2023-04-10T02:06:33;15.52;;;12.25;;
46355;SDS011;32066;49.474;11.106;2023-04-10T02:09:09;17.10;;;12.95;;
46355;SDS011;32066;49.474;11.106;2023-04-10T02:14:15;15.73;;;11.93;;
46355;SDS011;32066;49.474;11.106;2023-04-10T02:16:50;14.55;;;11.35;;
46355;SDS011;32066;49.474;11.106;2023-04-10T02:19:22;16.50;;;12.52;;
46355;SDS011;32066;49.474;11.106;2023-04-10T02:21:53;16.60;;;11.98;;
46355;SDS011;32066;49.474;11.106;2023-04-10T02:24:23;16.27;;;12.45;;
46355;SDS011;32066;49.474;11.106;2023-04-10T02:26:52;16.27;;;12.35;;
46355;SDS011;32066;49.474;11.106;2023-04-10T02:29:21;15.90;;;12.13;;
46355;SDS011;32066;49.474;11.106;2023-04-10T02:31:53;16.55;;;12.45;;
46355;SDS011;32066;49.474;11.106;2023-04-10T02:34:22;18.25;;;13.35;;
46355;SDS011;32066;49.474;11.106;2023-04-10T02:36:51;17.08;;;13.05;;
46355;SDS011;32066;49.474;11.106;2023-04-10T02:39:20;19.35;;;13.15;;
46355;SDS011;32066;49.474;11.106;2023-04-10T02:41:50;17.02;;;12.45;;
46355;SDS011;32066;49.474;11.106;2023-04-10T02:44:19;17.02;;;13.05;;
46355;SDS011;32066;49.474;11.106;2023-04-10T02:46:47;16.00;;;12.15;;
46355;SDS011;32066;49.474;11.106;2023-04-10T02:49:19;17.88;;;13.80;;
46355;SDS011;32066;49.474;11.106;2023-04-10T02:51:48;17.27;;;12.45;;
46355;SDS011;32066;49.474;11.106;2023-04-10T02:54:16;18.48;;;12.90;;
46355;SDS011;32066;49.474;11.106;2023-04-10T02:56:46;18.80;;;13.55;;
46355;SDS011;32066;49.474;11.106;2023-04-10T02:59:15;18.52;;;13.68;;
46355;SDS011;32066;49.474;11.106;2023-04-10T03:01:44;17.48;;;12.43;;
46355;SDS011;32066;49.474;11.106;2023-04-10T03:04:13;16.00;;;12.65;;
46355;SDS011;32066;49.474;11.106;2023-04-10T03:06:44;16.42;;;12.77;;
46355;SDS011;32066;49.474;11.106;2023-04-10T03:09:13;18.52;;;13.20;;
46355;SDS011;32066;49.474;11.106;2023-04-10T03:11:42;16.77;;;12.52;;
46355;SDS011;32066;49.474;11.106;2023-04-10T03:14:11;16.13;;;12.75;;
46355;SDS011;32066;49.474;11.106;2023-04-10T03:16:39;18.17;;;12.75;;
46355;SDS011;32066;49.474;11.106;2023-04-10T03:19:08;18.15;;;13.73;;
46355;SDS011;32066;49.474;11.106;2023-04-10T03:21:37;21.25;;;13.70;;
46355;SDS011;32066;49.474;11.106;2023-04-10T03:24:08;16.58;;;12.63;;
46355;SDS011;32066;49.474;11.106;2023-04-10T03:26:36;16.75;;;13.15;;
46355;SDS011;32066;49.474;11.106;2023-04-10T03:29:05;18.00;;;13.23;;
46355;SDS011;32066;49.474;11.106;2023-04-10T03:31:34;17.65;;;13.27;;
46355;SDS011;32066;49.474;11.106;2023-04-10T03:34:03;15.85;;;12.23;;
46355;SDS011;32066;49.474;11.106;2023-04-10T03:36:31;17.13;;;13.13;;
46355;SDS011;32066;49.474;11.106;2023-04-10T03:39:00;16.73;;;12.88;;
46355;SDS011;32066;49.474;11.106;2023-04-10T03:41:32;18.98;;;13.32;;
46355;SDS011;32066;49.474;11.106;2023-04-10T03:44:01;19.02;;;14.00;;
46355;SDS011;32066;49.474;11.106;2023-04-10T03:46:31;17.38;;;13.40;;
46355;SDS011;32066;49.474;11.106;2023-04-10T03:49:00;17.05;;;13.55;;
46355;SDS011;32066;49.474;11.106;2023-04-10T03:51:30;18.63;;;13.73;;
46355;SDS011;32066;49.474;11.106;2023-04-10T03:53:59;18.00;;;13.48;;
46355;SDS011;32066;49.474;11.106;2023-04-10T03:56:28;17.58;;;13.18;;
46355;SDS011;32066;49.474;11.106;2023-04-10T03:59:00;17.30;;;13.55;;
46355;SDS011;32066;49.474;11.106;2023-04-10T04:01:32;18.13;;;13.05;;
46355;SDS011;32066;49.474;11.106;2023-04-10T04:04:06;17.65;;;12.95;;
46355;SDS011;32066;49.474;11.106;2023-04-10T04:07:11;17.17;;;12.93;;
46355;SDS011;32066;49.474;11.106;2023-04-10T04:10:07;18.30;;;14.10;;
46355;SDS011;32066;49.474;11.106;2023-04-10T04:13:01;18.08;;;13.60;;
46355;SDS011;32066;49.474;11.106;2023-04-10T04:15:38;18.38;;;13.95;;
46355;SDS011;32066;49.474;11.106;2023-04-10T04:18:15;18.45;;;14.02;;
46355;SDS011;32066;49.474;11.106;2023-04-10T04:20:48;19.60;;;14.23;;
46355;SDS011;32066;49.474;11.106;2023-04-10T04:23:29;17.50;;;14.02;;
46355;SDS011;32066;49.474;11.106;2023-04-10T04:26:23;19.20;;;13.70;;
46355;SDS011;32066;49.474;11.106;2023-04-10T04:29:05;19.85;;;13.77;;
46355;SDS011;32066;49.474;11.106;2023-04-10T04:31:41;18.83;;;13.88;;
46355;SDS011;32066;49.474;11.106;2023-04-10T04:34:33;18.58;;;13.00;;
46355;SDS011;32066;49.474;11.106;2023-04-10T04:37:09;19.42;;;13.52;;
46355;SDS011;32066;49.474;11.106;2023-04-10T04:40:04;17.55;;;13.15;;
46355;SDS011;32066;49.474;11.106;2023-04-10T04:42:56;16.85;;;12.95;;
46355;SDS011;32066;49.474;11.106;2023-04-10T04:45:46;18.27;;;13.82;;
46355;SDS011;32066;49.474;11.106;2023-04-10T04:48:34;18.77;;;13.82;;
46355;SDS011;32066;49.474;11.106;2023-04-10T04:51:11;20.10;;;14.05;;
46355;SDS011;32066;49.474;11.106;2023-04-10T04:53:46;19.17;;;14.40;;
46355;SDS011;32066;49.474;11.106;2023-04-10T04:56:35;19.13;;;13.70;;
46355;SDS011;32066;49.474;11.106;2023-04-10T04:59:16;21.17;;;13.60;;
46355;SDS011;32066;49.474;11.106;2023-04-10T05:02:03;20.35;;;14.85;;
46355;SDS011;32066;49.474;11.106;2023-04-10T05:04:44;18.85;;;14.00;;
46355;SDS011;32066;49.474;11.106;2023-04-10T05:07:23;17.63;;;13.32;;
46355;SDS011;32066;49.474;11.106;2023-04-10T05:10:10;19.92;;;13.85;;
46355;SDS011;32066;49.474;11.106;2023-04-10T05:12:47;19.42;;;14.00;;
46355;SDS011;32066;49.474;11.106;2023-04-10T05:15:42;18.60;;;13.20;;
46355;SDS011;32066;49.474;11.106;2023-04-10T05:18:33;19.65;;;13.60;;
46355;SDS011;32066;49.474;11.106;2023-04-10T05:21:23;19.70;;;14.30;;
46355;SDS011;32066;49.474;11.106;2023-04-10T05:24:10;18.40;;;13.88;;
46355;SDS011;32066;49.474;11.106;2023-04-10T05:26:48;18.83;;;14.13;;
46355;SDS011;32066;49.474;11.106;2023-04-10T05:29:29;17.73;;;13.40;;
46355;SDS011;32066;49.474;11.106;2023-04-10T05:32:10;19.27;;;14.40;;
46355;SDS011;32066;49.474;11.106;2023-04-10T05:34:59;18.77;;;14.10;;
46355;SDS011;32066;49.474;11.106;2023-04-10T05:37:48;19.08;;;13.85;;
46355;SDS011;32066;49.474;11.106;2023-04-10T05:40:35;19.98;;;14.93;;
46355;SDS011;32066;49.474;11.106;2023-04-10T05:43:21;21.38;;;15.52;;
46355;SDS011;32066;49.474;11.106;2023-04-10T05:45:57;19.52;;;14.80;;
46355;SDS011;32066;49.474;11.106;2023-04-10T05:48:41;20.00;;;14.45;;
46355;SDS011;32066;49.474;11.106;2023-04-10T05:51:42;21.88;;;15.88;;
46355;SDS011;32066;49.474;11.106;2023-04-10T05:54:33;20.45;;;15.32;;
46355;SDS011;32066;49.474;11.106;2023-04-10T05:57:30;21.97;;;15.53;;
46355;SDS011;32066;49.474;11.106;2023-04-10T06:00:19;19.70;;;14.63;;
46355;SDS011;32066;49.474;11.106;2023-04-10T06:03:26;19.38;;;14.07;;
46355;SDS011;32066;49.474;11.106;2023-04-10T06:05:58;20.40;;;15.43;;
46355;SDS011;32066;49.474;11.106;2023-04-10T06:08:31;20.90;;;14.50;;
46355;SDS011;32066;49.474;11.106;2023-04-10T06:11:00;20.80;;;15.18;;
46355;SDS011;32066;49.474;11.106;2023-04-10T06:13:30;18.80;;;14.32;;
46355;SDS011;32066;49.474;11.106;2023-04-10T06:16:00;18.80;;;13.82;;
46355;SDS011;32066;49.474;11.106;2023-04-10T06:18:30;19.98;;;13.40;;
46355;SDS011;32066;49.474;11.106;2023-04-10T06:20:59;18.52;;;13.55;;
46355;SDS011;32066;49.474;11.106;2023-04-10T06:23:31;18.75;;;13.95;;
46355;SDS011;32066;49.474;11.106;2023-04-10T06:26:00;17.77;;;13.50;;
46355;SDS011;32066;49.474;11.106;2023-04-10T06:28:29;18.45;;;13.95;;
46355;SDS011;32066;49.474;11.106;2023-04-10T06:31:00;18.60;;;13.32;;
46355;SDS011;32066;49.474;11.106;2023-04-10T06:33:33;17.95;;;13.15;;
46355;SDS011;32066;49.474;11.106;2023-04-10T06:36:05;16.25;;;12.82;;
46355;SDS011;32066;49.474;11.106;2023-04-10T06:38:43;17.27;;;13.63;;
46355;SDS011;32066;49.474;11.106;2023-04-10T06:41:12;16.40;;;12.88;;
46355;SDS011;32066;49.474;11.106;2023-04-10T06:43:41;16.88;;;12.52;;
46355;SDS011;32066;49.474;11.106;2023-04-10T06:46:10;16.40;;;12.32;;
46355;SDS011;32066;49.474;11.106;2023-04-10T06:48:40;15.57;;;11.82;;
46355;SDS011;32066;49.474;11.106;2023-04-10T06:51:08;19.80;;;13.75;;
46355;SDS011;32066;49.474;11.106;2023-04-10T06:53:37;17.90;;;12.68;;
46355;SDS011;32066;49.474;11.106;2023-04-10T06:56:08;16.40;;;12.55;;
46355;SDS011;32066;49.474;11.106;2023-04-10T06:58:37;16.85;;;12.80;;
46355;SDS011;32066;49.474;11.106;2023-04-10T07:01:06;17.75;;;12.68;;
46355;SDS011;32066;49.474;11.106;2023-04-10T07:03:35;17.13;;;12.82;;
46355;SDS011;32066;49.474;11.106;2023-04-10T07:06:03;16.38;;;12.88;;
46355;SDS011;32066;49.474;11.106;2023-04-10T07:08:32;16.35;;;11.98;;
46355;SDS011;32066;49.474;11.106;2023-04-10T07:11:01;15.13;;;12.00;;
46355;SDS011;32066;49.474;11.106;2023-04-10T07:13:32;16.20;;;12.10;;
46355;SDS011;32066;49.474;11.106;2023-04-10T07:16:04;15.73;;;12.13;;
46355;SDS011;32066;49.474;11.106;2023-04-10T07:18:35;15.70;;;12.35;;
46355;SDS011;32066;49.474;11.106;2023-04-10T07:21:09;15.88;;;11.77;;
46355;SDS011;32066;49.474;11.106;2023-04-10T07:23:38;14.52;;;11.23;;
46355;SDS011;32066;49.474;11.106;2023-04-10T07:26:07;17.40;;;12.15;;
46355;SDS011;32066;49.474;11.106;2023-04-10T07:28:39;18.20;;;13.93;;
46355;SDS011;32066;49.474;11.106;2023-04-10T07:31:07;16.38;;;12.38;;
46355;SDS011;32066;49.474;11.106;2023-04-10T07:33:36;15.05;;;11.85;;
46355;SDS011;32066;49.474;11.106;2023-04-10T07:36:05;14.50;;;11.60;;
46355;SDS011;32066;49.474;11.106;2023-04-10T07:38:35;16.27;;;12.13;;
46355;SDS011;32066;49.474;11.106;2023-04-10T07:41:04;16.90;;;12.38;;
46355;SDS011;32066;49.474;11.106;2023-04-10T07:43:33;16.95;;;11.40;;
46355;SDS011;32066;49.474;11.106;2023-04-10T07:46:05;13.75;;;10.32;;
46355;SDS011;32066;49.474;11.106;2023-04-10T07:48:34;12.80;;;9.45;;
46355;SDS011;32066;49.474;11.106;2023-04-10T07:51:03;13.40;;;10.57;;
46355;SDS011;32066;49.474;11.106;2023-04-10T07:53:33;14.70;;;10.40;;
46355;SDS011;32066;49.474;11.106;2023-04-10T07:56:02;13.50;;;10.15;;
46355;SDS011;32066;49.474;11.106;2023-04-10T07:58:31;12.98;;;10.10;;
46355;SDS011;32066;49.474;11.106;2023-04-10T08:01:00;12.98;;;9.95;;
46355;SDS011;32066;49.474;11.106;2023-04-10T08:03:31;13.52;;;10.40;;
46355;SDS011;32066;49.474;11.106;2023-04-10T08:06:05;13.88;;;10.20;;
46355;SDS011;32066;49.474;11.106;2023-04-10T08:08:36;13.75;;;10.40;;
46355;SDS011;32066;49.474;11.106;2023-04-10T08:11:05;12.80;;;9.80;;
46355;SDS011;32066;49.474;11.106;2023-04-10T08:13:35;14.52;;;9.65;;
46355;SDS011;32066;49.474;11.106;2023-04-10T08:16:04;12.43;;;9.43;;
46355;SDS011;32066;49.474;11.106;2023-04-10T08:18:36;12.57;;;9.63;;
46355;SDS011;32066;49.474;11.106;2023-04-10T08:21:05;12.85;;;8.95;;
46355;SDS011;32066;49.474;11.106;2023-04-10T08:23:34;12.80;;;9.18;;
46355;SDS011;32066;49.474;11.106;2023-04-10T08:26:03;10.68;;;8.63;;
46355;SDS011;32066;49.474;11.106;2023-04-10T08:28:31;11.25;;;8.60;;
46355;SDS011;32066;49.474;11.106;2023-04-10T08:31:00;12.27;;;9.32;;
46355;SDS011;32066;49.474;11.106;2023-04-10T08:33:29;11.70;;;8.85;;
46355;SDS011;32066;49.474;11.106;2023-04-10T08:36:00;12.18;;;8.05;;
46355;SDS011;32066;49.474;11.106;2023-04-10T08:38:30;10.77;;;8.65;;
46355;SDS011;32066;49.474;11.106;2023-04-10T08:40:59;10.57;;;8.15;;
46355;SDS011;32066;49.474;11.106;2023-04-10T08:43:27;10.40;;;8.05;;
46355;SDS011;32066;49.474;11.106;2023-04-10T08:45:58;11.23;;;8.10;;
46355;SDS011;32066;49.474;11.106;2023-04-10T08:48:30;11.45;;;8.85;;
46355;SDS011;32066;49.474;11.106;2023-04-10T08:51:06;10.05;;;7.72;;
46355;SDS011;32066;49.474;11.106;2023-04-10T08:53:38;10.20;;;7.93;;
46355;SDS011;32066;49.474;11.106;2023-04-10T08:56:08;9.70;;;7.13;;
46355;SDS011;32066;49.474;11.106;2023-04-10T08:58:40;8.30;;;6.70;;
46355;SDS011;32066;49.474;11.106;2023-04-10T09:01:09;10.48;;;7.50;;
46355;SDS011;32066;49.474;11.106;2023-04-10T09:03:38;8.82;;;7.03;;
46355;SDS011;32066;49.474;11.106;2023-04-10T09:06:09;10.02;;;7.70;;
46355;SDS011;32066;49.474;11.106;2023-04-10T09:08:38;8.70;;;7.05;;
46355;SDS011;32066;49.474;11.106;2023-04-10T09:11:06;9.82;;;7.57;;
46355;SDS011;32066;49.474;11.106;2023-04-10T09:13:37;9.77;;;7.20;;
46355;SDS011;32066;49.474;11.106;2023-04-10T09:16:08;10.15;;;7.38;;
46355;SDS011;32066;49.474;11.106;2023-04-10T09:18:44;9.00;;;7.03;;
46355;SDS011;32066;49.474;11.106;2023-04-10T09:21:17;8.65;;;6.93;;
46355;SDS011;32066;49.474;11.106;2023-04-10T09:23:47;7.80;;;5.78;;
46355;SDS011;32066;49.474;11.106;2023-04-10T09:26:26;8.57;;;6.30;;
46355;SDS011;32066;49.474;11.106;2023-04-10T09:28:56;7.43;;;5.95;;
46355;SDS011;32066;49.474;11.106;2023-04-10T09:31:30;8.65;;;6.60;;
46355;SDS011;32066;49.474;11.106;2023-04-10T09:34:12;8.52;;;6.43;;
46355;SDS011;32066;49.474;11.106;2023-04-10T09:36:52;8.45;;;6.22;;
46355;SDS011;32066;49.474;11.106;2023-04-10T09:39:30;7.93;;;5.95;;
46355;SDS011;32066;49.474;11.106;2023-04-10T09:42:01;8.20;;;6.45;;
46355;SDS011;32066;49.474;11.106;2023-04-10T09:44:30;8.00;;;6.20;;
46355;SDS011;32066;49.474;11.106;2023-04-10T09:47:14;8.15;;;6.00;;
46355;SDS011;32066;49.474;11.106;2023-04-10T09:49:44;9.10;;;6.72;;
46355;SDS011;32066;49.474;11.106;2023-04-10T09:52:20;8.02;;;5.85;;
46355;SDS011;32066;49.474;11.106;2023-04-10T09:54:50;7.82;;;5.85;;
46355;SDS011;32066;49.474;11.106;2023-04-10T09:57:20;7.03;;;5.45;;
46355;SDS011;32066;49.474;11.106;2023-04-10T09:59:50;8.95;;;5.90;;
46355;SDS011;32066;49.474;11.106;2023-04-10T10:02:20;7.50;;;5.38;;
46355;SDS011;32066;49.474;11.106;2023-04-10T10:04:51;28.98;;;9.55;;
46355;SDS011;32066;49.474;11.106;2023-04-10T10:07:22;34.67;;;9.52;;
46355;SDS011;32066;49.474;11.106;2023-04-10T10:09:51;22.38;;;7.72;;
46355;SDS011;32066;49.474;11.106;2023-04-10T10:12:21;20.30;;;7.38;;
46355;SDS011;32066;49.474;11.106;2023-04-10T10:14:53;16.35;;;7.97;;
46355;SDS011;32066;49.474;11.106;2023-04-10T10:17:30;11.55;;;6.53;;
46355;SDS011;32066;49.474;11.106;2023-04-10T10:20:04;21.77;;;7.57;;
46355;SDS011;32066;49.474;11.106;2023-04-10T10:22:38;7.85;;;6.00;;
46355;SDS011;32066;49.474;11.106;2023-04-10T10:25:08;7.35;;;5.72;;
46355;SDS011;32066;49.474;11.106;2023-04-10T10:27:37;8.30;;;6.00;;
46355;SDS011;32066;49.474;11.106;2023-04-10T10:30:08;7.60;;;5.63;;
46355;SDS011;32066;49.474;11.106;2023-04-10T10:32:39;7.82;;;6.00;;
46355;SDS011;32066;49.474;11.106;2023-04-10T10:35:08;6.70;;;5.00;;
46355;SDS011;32066;49.474;11.106;2023-04-10T10:37:40;8.32;;;5.70;;
46355;SDS011;32066;49.474;11.106;2023-04-10T10:40:11;7.55;;;5.43;;
46355;SDS011;32066;49.474;11.106;2023-04-10T10:42:45;6.35;;;4.82;;
46355;SDS011;32066;49.474;11.106;2023-04-10T10:45:24;8.15;;;5.57;;
46355;SDS011;32066;49.474;11.106;2023-04-10T10:47:59;7.43;;;5.50;;
46355;SDS011;32066;49.474;11.106;2023-04-10T10:53:34;7.07;;;5.45;;
46355;SDS011;32066;49.474;11.106;2023-04-10T10:59:04;7.18;;;4.88;;
46355;SDS011;32066;49.474;11.106;2023-04-10T11:01:32;7.25;;;4.90;;
46355;SDS011;32066;49.474;11.106;2023-04-10T11:04:09;7.63;;;5.57;;
46355;SDS011;32066;49.474;11.106;2023-04-10T11:07:10;7.40;;;5.40;;
46355;SDS011;32066;49.474;11.106;2023-04-10T11:09:46;7.07;;;4.97;;
46355;SDS011;32066;49.474;11.106;2023-04-10T11:12:18;6.93;;;4.65;;
46355;SDS011;32066;49.474;11.106;2023-04-10T11:14:57;6.43;;;4.68;;
46355;SDS011;32066;49.474;11.106;2023-04-10T11:20:15;7.50;;;5.10;;
46355;SDS011;32066;49.474;11.106;2023-04-10T11:25:51;7.88;;;5.18;;
46355;SDS011;32066;49.474;11.106;2023-04-10T11:31:18;6.95;;;4.45;;
46355;SDS011;32066;49.474;11.106;2023-04-10T11:33:48;6.40;;;4.57;;
46355;SDS011;32066;49.474;11.106;2023-04-10T11:36:18;7.30;;;5.30;;
46355;SDS011;32066;49.474;11.106;2023-04-10T11:38:54;6.95;;;4.78;;
46355;SDS011;32066;49.474;11.106;2023-04-10T11:41:33;6.78;;;4.68;;
46355;SDS011;32066;49.474;11.106;2023-04-10T11:44:03;7.28;;;4.20;;
46355;SDS011;32066;49.474;11.106;2023-04-10T11:46:35;5.90;;;4.40;;
46355;SDS011;32066;49.474;11.106;2023-04-10T11:49:04;6.32;;;4.57;;
46355;SDS011;32066;49.474;11.106;2023-04-10T11:51:34;6.53;;;4.25;;
46355;SDS011;32066;49.474;11.106;2023-04-10T11:54:04;6.95;;;4.85;;
46355;SDS011;32066;49.474;11.106;2023-04-10T11:56:37;6.32;;;4.15;;
46355;SDS011;32066;49.474;11.106;2023-04-10T11:59:07;6.20;;;4.22;;
46355;SDS011;32066;49.474;11.106;2023-04-10T12:01:39;6.60;;;4.60;;
46355;SDS011;32066;49.474;11.106;2023-04-10T12:04:14;6.18;;;4.47;;
46355;SDS011;32066;49.474;11.106;2023-04-10T12:06:43;8.80;;;4.97;;
46355;SDS011;32066;49.474;11.106;2023-04-10T12:09:12;6.65;;;4.63;;
46355;SDS011;32066;49.474;11.106;2023-04-10T12:11:50;6.60;;;4.57;;
46355;SDS011;32066;49.474;11.106;2023-04-10T12:14:20;7.55;;;4.97;;
46355;SDS011;32066;49.474;11.106;2023-04-10T12:16:49;7.32;;;4.95;;
46355;SDS011;32066;49.474;11.106;2023-04-10T12:19:18;5.88;;;3.72;;
46355;SDS011;32066;49.474;11.106;2023-04-10T12:21:47;6.35;;;4.15;;
46355;SDS011;32066;49.474;11.106;2023-04-10T12:27:19;6.13;;;4.38;;
46355;SDS011;32066;49.474;11.106;2023-04-10T12:29:50;5.95;;;4.10;;
46355;SDS011;32066;49.474;11.106;2023-04-10T12:32:21;7.13;;;3.90;;
46355;SDS011;32066;49.474;11.106;2023-04-10T12:34:51;6.15;;;4.35;;
46355;SDS011;32066;49.474;11.106;2023-04-10T12:37:21;6.38;;;4.03;;
46355;SDS011;32066;49.474;11.106;2023-04-10T12:39:50;6.10;;;4.00;;
46355;SDS011;32066;49.474;11.106;2023-04-10T12:42:25;6.07;;;4.50;;
46355;SDS011;32066;49.474;11.106;2023-04-10T12:44:54;6.35;;;4.47;;
46355;SDS011;32066;49.474;11.106;2023-04-10T12:47:24;24.05;;;12.90;;
46355;SDS011;32066;49.474;11.106;2023-04-10T12:50:06;13.57;;;8.23;;
46355;SDS011;32066;49.474;11.106;2023-04-10T12:52:40;7.28;;;4.40;;
46355;SDS011;32066;49.474;11.106;2023-04-10T12:55:11;5.82;;;3.95;;
46355;SDS011;32066;49.474;11.106;2023-04-10T12:57:44;7.80;;;4.00;;
46355;SDS011;32066;49.474;11.106;2023-04-10T13:00:16;6.25;;;4.22;;
46355;SDS011;32066;49.474;11.106;2023-04-10T13:02:46;5.47;;;3.88;;
46355;SDS011;32066;49.474;11.106;2023-04-10T13:05:15;6.25;;;4.10;;
46355;SDS011;32066;49.474;11.106;2023-04-10T13:07:45;7.00;;;4.40;;
46355;SDS011;32066;49.474;11.106;2023-04-10T13:10:16;6.68;;;4.78;;
46355;SDS011;32066;49.474;11.106;2023-04-10T13:12:48;6.55;;;4.60;;
46355;SDS011;32066;49.474;11.106;2023-04-10T13:15:17;6.60;;;4.47;;
46355;SDS011;32066;49.474;11.106;2023-04-10T13:17:45;6.50;;;4.60;;
46355;SDS011;32066;49.474;11.106;2023-04-10T13:20:14;7.40;;;4.82;;
46355;SDS011;32066;49.474;11.106;2023-04-10T13:22:44;9.52;;;6.15;;
46355;SDS011;32066;49.474;11.106;2023-04-10T13:25:12;6.15;;;4.13;;
46355;SDS011;32066;49.474;11.106;2023-04-10T13:27:41;5.60;;;3.97;;
46355;SDS011;32066;49.474;11.106;2023-04-10T13:30:12;5.97;;;4.05;;
46355;SDS011;32066;49.474;11.106;2023-04-10T13:32:41;5.43;;;3.75;;
46355;SDS011;32066;49.474;11.106;2023-04-10T13:35:10;6.75;;;3.80;;
46355;SDS011;32066;49.474;11.106;2023-04-10T13:37:38;5.65;;;3.47;;
46355;SDS011;32066;49.474;11.106;2023-04-10T13:40:08;5.55;;;3.50;;
46355;SDS011;32066;49.474;11.106;2023-04-10T13:42:37;5.97;;;3.28;;
46355;SDS011;32066;49.474;11.106;2023-04-10T13:45:06;6.43;;;3.45;;
46355;SDS011;32066;49.474;11.106;2023-04-10T13:47:38;5.43;;;3.70;;
46355;SDS011;32066;49.474;11.106;2023-04-10T13:50:07;5.43;;;3.78;;
46355;SDS011;32066;49.474;11.106;2023-04-10T13:52:36;6.30;;;3.88;;
46355;SDS011;32066;49.474;11.106;2023-04-10T13:55:05;6.00;;;3.83;;
46355;SDS011;32066;49.474;11.106;2023-04-10T13:57:35;5.47;;;3.60;;
46355;SDS011;32066;49.474;11.106;2023-04-10T14:00:04;5.22;;;3.42;;
46355;SDS011;32066;49.474;11.106;2023-04-10T14:02:44;5.07;;;3.40;;
46355;SDS011;32066;49.474;11.106;2023-04-10T14:05:13;5.53;;;3.58;;
46355;SDS011;32066;49.474;11.106;2023-04-10T14:07:41;6.45;;;4.07;;
46355;SDS011;32066;49.474;11.106;2023-04-10T14:10:10;5.20;;;3.70;;
46355;SDS011;32066;49.474;11.106;2023-04-10T14:12:39;4.50;;;2.92;;
46355;SDS011;32066;49.474;11.106;2023-04-10T14:15:08;4.85;;;3.25;;
46355;SDS011;32066;49.474;11.106;2023-04-10T14:17:37;5.97;;;3.90;;
46355;SDS011;32066;49.474;11.106;2023-04-10T14:20:09;5.57;;;3.45;;
46355;SDS011;32066;49.474;11.106;2023-04-10T14:22:38;6.18;;;3.90;;
46355;SDS011;32066;49.474;11.106;2023-04-10T14:25:07;5.32;;;3.55;;
46355;SDS011;32066;49.474;11.106;2023-04-10T14:27:39;5.78;;;3.70;;
46355;SDS011;32066;49.474;11.106;2023-04-10T14:30:09;5.25;;;3.42;;
46355;SDS011;32066;49.474;11.106;2023-04-10T14:32:39;5.20;;;3.42;;
46355;SDS011;32066;49.474;11.106;2023-04-10T14:35:10;5.38;;;3.20;;
46355;SDS011;32066;49.474;11.106;2023-04-10T14:37:39;5.35;;;3.55;;
46355;SDS011;32066;49.474;11.106;2023-04-10T14:40:08;5.35;;;3.75;;
46355;SDS011;32066;49.474;11.106;2023-04-10T14:42:38;5.28;;;3.80;;
46355;SDS011;32066;49.474;11.106;2023-04-10T14:45:07;6.75;;;3.40;;
46355;SDS011;32066;49.474;11.106;2023-04-10T14:47:36;4.75;;;3.28;;
46355;SDS011;32066;49.474;11.106;2023-04-10T14:50:06;5.05;;;3.47;;
46355;SDS011;32066;49.474;11.106;2023-04-10T14:52:38;6.65;;;3.47;;
46355;SDS011;32066;49.474;11.106;2023-04-10T14:55:07;5.15;;;3.42;;
46355;SDS011;32066;49.474;11.106;2023-04-10T14:57:36;5.85;;;3.65;;
46355;SDS011;32066;49.474;11.106;2023-04-10T15:00:06;5.00;;;3.22;;
46355;SDS011;32066;49.474;11.106;2023-04-10T15:02:35;5.95;;;3.78;;
46355;SDS011;32066;49.474;11.106;2023-04-10T15:05:04;5.50;;;3.42;;
46355;SDS011;32066;49.474;11.106;2023-04-10T15:07:34;5.38;;;3.53;;
46355;SDS011;32066;49.474;11.106;2023-04-10T15:10:05;5.07;;;3.40;;
46355;SDS011;32066;49.474;11.106;2023-04-10T15:12:35;5.70;;;3.85;;
46355;SDS011;32066;49.474;11.106;2023-04-10T15:15:04;4.93;;;3.13;;